航空気象通報

ウインドサーファーのための航空気象通報による風予報です。

9/30-10/1の航空気象通報(国内、海外)

2009年09月30日 23時45分56秒 | TAF
羽田空港
TAF AMD RJTT 300928Z 3009/0112 04008KT 9999 -RA FEW006 SCT010 BKN015
TEMPO 3011/3015 RA FEW004 BKN008 BKN015
TEMPO 3017/3021 4000 BR FEW004 BKN008 BKN015
BECMG 0100/0103 08008KT
日本時間30日18時-1日09時:040度から8ノットの風
09-12時:風が変化
12-21時:080度から8ノットの風


富士山静岡空港
TAF RJNS 300843Z 3009/0112 04004KT 6000 -RA FEW005 SCT010 BKN030
TEMPO 3009/3015 3000 -RA BR FEW003 BKN005
TEMPO 3017/3021 2000 BR FEW003 BKN007
日本時間30日18時-1日21時:040度から4ノットの風


那覇空港
TAF ROAH 300837Z 3009/0112 13009KT 9999 FEW020
日本時間30日22時-1日21時:130度から9ノットの風


マウイのカフルイ空港
PHOG 301132Z 3012/0112 05010KT P6SM SCT060
FM301800 06012G18KT P6SM SCT060
FM302100 06018G28KT P6SM FEW035 SCT060
FM010300 06012G18KT P6SM FEW035 SCT060
FM010900 05012KT P6SM FEW060
ハワイ時間30日02-08時:050度から10ノットの風
08-11時:060度から12ノット、突風18ノット
11-17時:060度から18ノット、突風28ノット
17-23時:060度から12ノット、突風18ノット
23時-1日02時:050度から12ノットの風


サイパン空港
PGSN 301140Z 3012/0112 11011KT P6SM VCSH SCT015 SCT120
FM302300 10011KT P6SM VCSH SCT015 SCT050
マリアナ時間30日22時-1日09時:110度から11ノットの風
09-22時:100度から11ノットの風

コメント
この記事をはてなブックマークに追加

9/29-9/30の航空気象通報(国内、海外)

2009年09月29日 23時05分59秒 | TAF
羽田空港
TAF AMD RJTT 291153Z 2911/3012 11006KT 8000 FEW015 BKN030
BECMG 2914/2916 05010KT
TEMPO 2915/2924 4000 BR
TEMPO 3000/3006 4000 -RA BR FEW006 BKN008 BKN015
TEMPO 3006/3012 3000 RA BR FEW004 BKN006 BKN010
日本時間29日20-23時:110度から6ノットの風
23時-30日01時:風が変化
01-21時:050度から10ノットの風

但し、30日00-09時の間:ときどき、もや
但し、30日09-21時の間:ときどき、

富士山静岡空港
TAF RJNS 290843Z 2909/3012 07006KT 6000 FEW008 SCT010 BKN020
BECMG 2912/2914 29006KT
BECMG 2921/2924 03004KT 4000 -SHRA BR
TEMPO 3000/3003 1800 SHRA BR FEW003 BKN005
TEMPO 3003/3012 1300 SHRA BR FEW003 BKN005
日本時間29日18-21時:070度から6ノットの風
21-23時:風が変化
23時-30日06時:290度から6ノットの風

06-09時:風が変化
09-21時:030度から4ノットの風


那覇空港
TAF ROAH 290841Z 2909/3012 11010KT 9999 SCT020
日本時間29日22時-30日21時:110度から10ノットの風


マウイのカフルイ空港
PHOG 291136Z 2912/3012 06008KT P6SM FEW060
FM291700 06012G18KT P6SM FEW040 SCT070
FM292000 06018G28KT P6SM FEW035 SCT050
FM300500 06012G20KT P6SM SCT060
FM301000 06010KT P6SM SCT060
ハワイ時間29日02-07時:060度から8ノットの風
07-10時:060度から12ノット、突風18ノット
10-19時:060度から18ノット、突風28ノット
19-24時:060度から12ノット、突風20ノット
30日00-02時:060度から10ノットの風


サイパン空港
PGSN 291136Z 2912/3012 07014G23KT P6SM VCSH SCT020CB SCT050 BKN120
FM300100 09014G26KT P6SM VCSH SCT020CB BKN050 BKN120
FM300800 14014G26KT P6SM VCSH SCT020CB BKN050 BKN120
マリアナ時間29日22時-30日11時:070度から14ノット、突風23ノット
11-18時:090度から14ノット、突風26ノット
18-22時:140度から14ノット、突風26ノット

コメント
この記事をはてなブックマークに追加

9/28-9/29の航空気象通報(国内、海外)

2009年09月28日 23時19分05秒 | TAF
羽田空港
TAF RJTT 280840Z 2809/2912 18006KT 9999 FEW020 BKN030
TEMPO 2818/2824 4000 -SHRA BR FEW005 BKN008 BKN015
BECMG 2900/2903 36005KT
TEMPO 2906/2912 4000 SHRA BR FEW005 BKN008 BKN020
日本時間28日18時-29日09時:180度から6ノットの風
09-12時:風が変化
12-21時:360度から5ノットの風

但し、28日18時-29日09時の間:ときどき、
但し、29日15-21時の間:ときどき、

富士山静岡空港
TAF RJNS 280845Z 2809/2912 07006KT 9000 FEW010 SCT020 BKN030
TEMPO 2817/2824 3000 SHRA BR FEW003 BKN006 BKN012
BECMG 2821/2824 23008KT
TEMPO 2906/2912 3000 SHRA BR FEW003 BKN006 BKN012
日本時間28日18時-29日06時:070度から6ノットの風
06-09時:風が変化
09-21時:230度から8ノットの風

但し、29日02-09時の間:ときどき、
但し、29日15-21時の間:ときどき、

那覇空港
TAF AMD ROAH 281308Z 2813/2912 11009KT 9999 FEW010 SCT020
TEMPO 2813/2815 TSRA SCT010 BKN015 FEW020CB
日本時間28日22時-29日21時:110度から9ノットの風

但し、28日22-24時の間:ときどき、

マウイのカフルイ空港
PHOG 281125Z 2812/2912 05012KT P6SM SCT060
FM281900 06020G28KT P6SM FEW035 SCT060
FM290300 06012G18KT P6SM FEW035 SCT060
FM290600 05012KT P6SM SCT060
ハワイ時間28日02-09時:050度から12ノットの風
09-17時:060度から20ノット、突風28ノット
17-20時:060度から12ノット、突風18ノット
20時-29日02時:050度から12ノットの風


サイパン空港
PGSN 281128Z 2812/2912 06016G25KT P6SM VCSH SCT018 SCT040 BKN120
TEMPO 2812/2816 4SM SHRA BKN018CB BKN040 OVC120
FM290000 09012G22KT P6SM VCSH SCT020 SCT050 BKN120
マリアナ時間28日22時-29日10時:060度から16ノット、突風25ノット
10-22時:090度から12ノット、突風22ノット

但し、28日22時-29日02時の間:ときどき、
コメント
この記事をはてなブックマークに追加

9/27-9/28の航空気象通報(国内、海外)

2009年09月27日 22時00分25秒 | TAF
羽田空港
TAF RJTT 270835Z 2709/2812 07012KT 9999 FEW030
BECMG 2713/2715 03010KT
BECMG 2803/2806 12006KT
日本時間27日18-22時:070度から12ノットの風
22-24時:風が変化
28日00-12時:030度から10ノットの風
12-15時:風が変化
15-21時:120度から6ノットの風


富士山静岡空港
RJNS 270841Z 2709/2812 10007KT 9999 FEW030
日本時間27日18時-28日21時:100度から7ノットの風


那覇空港
TAF ROAH 270838Z 2709/2812 11008KT 9999 SCT020
日本時間27日18時-28日21時:110度から8ノットの風


マウイのカフルイ空港
PHOG 271122Z 2712/2812 04010KT P6SM FEW030 SCT060
FM271900 05018G28KT P6SM FEW035 SCT060
FM280500 05012G18KT P6SM FEW030 SCT060
FM281000 04009KT P6SM FEW030 SCT060
ハワイ時間27日02-09時:040度から10ノットの風
09-19時:050度から18ノット、突風28ノット
19-24時:050度から12ノット、突風18ノット
28日00-02時:040度から9ノットの風


サイパン空港
PGSN 271138Z 2712/2812 06011KT P6SM VCSH SCT018 BKN140
TEMPO 2712/2716 06012G22KT 4SM SHRA BKN016CB BKN050 BKN120
FM280000 08010G18KT P6SM VCSH SCT018 SCT040 BKN120
マリアナ時間27日22時-28日10時:060度から11ノットの風
10-22時:080度から10ノット、突風18ノット

但し、27日22時-28日02時の間:一時、060度から12ノット、突風22ノット、
コメント
この記事をはてなブックマークに追加

9/26-9/27の航空気象通報(国内、海外)

2009年09月26日 19時08分17秒 | TAF
今月から富士山静岡空港のTAF(予報)が出るということで、御前崎用に加えました。

羽田空港
TAF RJTT 260838Z 2609/2712 07014KT 9999 FEW030
BECMG 2612/2614 04010KT
BECMG 2703/2706 07012KT
日本時間26日18-21時:070度から14ノットの風
21-23時:風が変化
23時-27日12時:040度から10ノットの風
12-15時:風が変化
15-21時:070度から12ノットの風


富士山静岡空港
TAF RJNS 260838Z 2609/2712 28005KT 9999 FEW030 SCT060
BECMG 2621/2624 06010KT
日本時間26日18-21時:280度から5ノットの風
21-23時:風が変化
23時-27日21時:060度から10ノットの風


那覇空港
TAF ROAH 260836Z 2609/2712 08008KT 9999 FEW020
BECMG 2621/2624 11010KT
日本時間26日18時-27日03時:080度から8ノットの風
03-06時:風が変化
06-21時:110度から10ノットの風


マウイのカフルイ空港
PHOG 261127Z 2612/2712 06011KT P6SM BKN050
FM262000 05015G22KT P6SM FEW040 SCT060
FM270600 06011KT P6SM SCT060
ハワイ時間26日02-10時:060度から11ノットの風

10-20時:050度から15ノット、突風22ノット
20時-27日02時:060度から11ノットの風


サイパン空港
PGSN 261122Z 2612/2712 06008KT P6SM VCSH SCT020 BKN120
マリアナ時間26日22時-27日22時:060度から8ノットの風

コメント
この記事をはてなブックマークに追加